sensor_id;sensor_type;location;lat;lon;timestamp;temperature;humidity
12708;DHT22;6418;50.824;4.718;2023-04-25T00:02:15;7.70;99.90
12708;DHT22;6418;50.824;4.718;2023-04-25T00:04:44;7.70;99.90
12708;DHT22;6418;50.824;4.718;2023-04-25T00:07:11;7.60;99.90
12708;DHT22;6418;50.824;4.718;2023-04-25T00:09:38;7.60;99.90
12708;DHT22;6418;50.824;4.718;2023-04-25T00:12:06;7.60;99.90
12708;DHT22;6418;50.824;4.718;2023-04-25T00:14:33;7.60;99.90
12708;DHT22;6418;50.824;4.718;2023-04-25T00:17:01;7.60;99.90
12708;DHT22;6418;50.824;4.718;2023-04-25T00:19:28;7.70;99.90
12708;DHT22;6418;50.824;4.718;2023-04-25T00:21:57;7.70;99.90
12708;DHT22;6418;50.824;4.718;2023-04-25T00:24:24;7.70;99.90
12708;DHT22;6418;50.824;4.718;2023-04-25T00:26:51;7.70;99.90
12708;DHT22;6418;50.824;4.718;2023-04-25T00:29:18;7.70;99.90
12708;DHT22;6418;50.824;4.718;2023-04-25T00:31:45;7.70;99.90
12708;DHT22;6418;50.824;4.718;2023-04-25T00:34:12;7.80;99.90
12708;DHT22;6418;50.824;4.718;2023-04-25T00:36:39;7.80;99.90
12708;DHT22;6418;50.824;4.718;2023-04-25T00:39:07;7.80;99.90
12708;DHT22;6418;50.824;4.718;2023-04-25T00:41:34;7.70;99.90
12708;DHT22;6418;50.824;4.718;2023-04-25T00:44:03;7.70;99.90
12708;DHT22;6418;50.824;4.718;2023-04-25T00:46:31;7.70;99.90
12708;DHT22;6418;50.824;4.718;2023-04-25T00:48:58;7.70;99.90
12708;DHT22;6418;50.824;4.718;2023-04-25T00:51:25;7.70;99.90
12708;DHT22;6418;50.824;4.718;2023-04-25T00:53:53;7.70;99.90
12708;DHT22;6418;50.824;4.718;2023-04-25T00:56:22;7.70;99.90
12708;DHT22;6418;50.824;4.718;2023-04-25T00:58:50;7.70;99.90
12708;DHT22;6418;50.824;4.718;2023-04-25T01:01:19;7.70;99.90
12708;DHT22;6418;50.824;4.718;2023-04-25T01:03:46;7.70;99.90
12708;DHT22;6418;50.824;4.718;2023-04-25T01:06:16;7.70;99.90
12708;DHT22;6418;50.824;4.718;2023-04-25T01:08:43;7.70;99.90
12708;DHT22;6418;50.824;4.718;2023-04-25T01:11:10;7.70;99.90
12708;DHT22;6418;50.824;4.718;2023-04-25T01:13:39;7.70;99.90
12708;DHT22;6418;50.824;4.718;2023-04-25T01:16:06;7.70;99.90
12708;DHT22;6418;50.824;4.718;2023-04-25T01:18:33;7.70;99.90
12708;DHT22;6418;50.824;4.718;2023-04-25T01:21:07;7.70;99.90
12708;DHT22;6418;50.824;4.718;2023-04-25T01:23:35;7.70;99.90
12708;DHT22;6418;50.824;4.718;2023-04-25T01:26:03;7.60;99.90
12708;DHT22;6418;50.824;4.718;2023-04-25T01:28:30;7.60;99.90
12708;DHT22;6418;50.824;4.718;2023-04-25T01:30:58;7.60;99.90
12708;DHT22;6418;50.824;4.718;2023-04-25T01:33:26;7.60;99.90
12708;DHT22;6418;50.824;4.718;2023-04-25T01:35:52;7.60;99.90
12708;DHT22;6418;50.824;4.718;2023-04-25T01:38:21;7.50;99.90
12708;DHT22;6418;50.824;4.718;2023-04-25T01:40:49;7.50;99.90
12708;DHT22;6418;50.824;4.718;2023-04-25T01:43:17;7.50;99.90
12708;DHT22;6418;50.824;4.718;2023-04-25T01:45:44;7.50;99.90
12708;DHT22;6418;50.824;4.718;2023-04-25T01:48:13;7.40;99.90
12708;DHT22;6418;50.824;4.718;2023-04-25T01:50:42;7.50;99.90
12708;DHT22;6418;50.824;4.718;2023-04-25T01:53:09;7.40;99.90
12708;DHT22;6418;50.824;4.718;2023-04-25T01:55:39;7.40;99.90
12708;DHT22;6418;50.824;4.718;2023-04-25T01:58:06;7.40;99.90
12708;DHT22;6418;50.824;4.718;2023-04-25T02:00:35;7.40;99.90
12708;DHT22;6418;50.824;4.718;2023-04-25T02:03:03;7.40;99.90
12708;DHT22;6418;50.824;4.718;2023-04-25T02:05:34;7.30;99.90
12708;DHT22;6418;50.824;4.718;2023-04-25T02:08:02;7.30;99.90
12708;DHT22;6418;50.824;4.718;2023-04-25T02:10:29;7.30;99.90
12708;DHT22;6418;50.824;4.718;2023-04-25T02:12:58;7.30;99.90
12708;DHT22;6418;50.824;4.718;2023-04-25T02:15:25;7.30;99.90
12708;DHT22;6418;50.824;4.718;2023-04-25T02:17:52;7.30;99.90
12708;DHT22;6418;50.824;4.718;2023-04-25T02:20:21;7.30;99.90
12708;DHT22;6418;50.824;4.718;2023-04-25T02:22:48;7.20;99.90
12708;DHT22;6418;50.824;4.718;2023-04-25T02:25:16;7.20;99.90
12708;DHT22;6418;50.824;4.718;2023-04-25T02:27:43;7.20;99.90
12708;DHT22;6418;50.824;4.718;2023-04-25T02:30:13;7.20;99.90
12708;DHT22;6418;50.824;4.718;2023-04-25T02:32:40;7.20;99.90
12708;DHT22;6418;50.824;4.718;2023-04-25T02:35:08;7.10;99.90
12708;DHT22;6418;50.824;4.718;2023-04-25T02:37:36;7.10;99.90
12708;DHT22;6418;50.824;4.718;2023-04-25T02:40:03;7.10;99.90
12708;DHT22;6418;50.824;4.718;2023-04-25T02:42:31;7.10;99.90
12708;DHT22;6418;50.824;4.718;2023-04-25T02:44:58;7.10;99.90
12708;DHT22;6418;50.824;4.718;2023-04-25T02:47:26;7.10;99.90
12708;DHT22;6418;50.824;4.718;2023-04-25T02:49:53;7.00;99.90
12708;DHT22;6418;50.824;4.718;2023-04-25T02:52:20;7.10;99.90
12708;DHT22;6418;50.824;4.718;2023-04-25T02:54:47;7.10;99.90
12708;DHT22;6418;50.824;4.718;2023-04-25T02:57:14;7.10;99.90
12708;DHT22;6418;50.824;4.718;2023-04-25T02:59:41;7.10;99.90
12708;DHT22;6418;50.824;4.718;2023-04-25T03:02:09;7.10;99.90
12708;DHT22;6418;50.824;4.718;2023-04-25T03:04:37;7.00;99.90
12708;DHT22;6418;50.824;4.718;2023-04-25T03:07:05;7.00;99.90
12708;DHT22;6418;50.824;4.718;2023-04-25T03:09:32;7.10;99.90
12708;DHT22;6418;50.824;4.718;2023-04-25T03:11:59;7.00;99.90
12708;DHT22;6418;50.824;4.718;2023-04-25T03:14:27;7.00;99.90
12708;DHT22;6418;50.824;4.718;2023-04-25T03:16:54;7.00;99.90
12708;DHT22;6418;50.824;4.718;2023-04-25T03:19:20;7.00;99.90
12708;DHT22;6418;50.824;4.718;2023-04-25T03:21:49;7.00;99.90
12708;DHT22;6418;50.824;4.718;2023-04-25T03:24:16;7.00;99.90
12708;DHT22;6418;50.824;4.718;2023-04-25T03:26:43;7.00;99.90
12708;DHT22;6418;50.824;4.718;2023-04-25T03:29:10;7.00;99.90
12708;DHT22;6418;50.824;4.718;2023-04-25T03:31:38;7.00;99.90
12708;DHT22;6418;50.824;4.718;2023-04-25T03:34:05;7.00;99.90
12708;DHT22;6418;50.824;4.718;2023-04-25T03:36:32;7.00;99.90
12708;DHT22;6418;50.824;4.718;2023-04-25T03:39:00;7.00;99.90
12708;DHT22;6418;50.824;4.718;2023-04-25T03:41:28;7.00;99.90
12708;DHT22;6418;50.824;4.718;2023-04-25T03:43:55;6.90;99.90
12708;DHT22;6418;50.824;4.718;2023-04-25T03:46:22;7.00;99.90
12708;DHT22;6418;50.824;4.718;2023-04-25T03:48:49;6.90;99.90
12708;DHT22;6418;50.824;4.718;2023-04-25T03:51:16;6.90;99.90
12708;DHT22;6418;50.824;4.718;2023-04-25T03:53:43;6.90;99.90
12708;DHT22;6418;50.824;4.718;2023-04-25T03:56:11;6.90;99.90
12708;DHT22;6418;50.824;4.718;2023-04-25T03:58:38;6.80;99.90
12708;DHT22;6418;50.824;4.718;2023-04-25T04:01:05;6.80;99.90
12708;DHT22;6418;50.824;4.718;2023-04-25T04:03:33;6.80;99.90
12708;DHT22;6418;50.824;4.718;2023-04-25T04:06:01;6.70;99.90
12708;DHT22;6418;50.824;4.718;2023-04-25T04:08:28;6.60;99.90
12708;DHT22;6418;50.824;4.718;2023-04-25T04:10:55;6.50;99.90
12708;DHT22;6418;50.824;4.718;2023-04-25T04:13:25;6.60;99.90
12708;DHT22;6418;50.824;4.718;2023-04-25T04:15:52;6.50;99.90
12708;DHT22;6418;50.824;4.718;2023-04-25T04:18:20;6.50;99.90
12708;DHT22;6418;50.824;4.718;2023-04-25T04:20:47;6.50;99.90
12708;DHT22;6418;50.824;4.718;2023-04-25T04:23:14;6.40;99.90
12708;DHT22;6418;50.824;4.718;2023-04-25T04:25:41;6.40;99.90
12708;DHT22;6418;50.824;4.718;2023-04-25T04:28:08;6.40;99.90
12708;DHT22;6418;50.824;4.718;2023-04-25T04:30:37;6.40;99.90
12708;DHT22;6418;50.824;4.718;2023-04-25T04:33:04;6.40;99.90
12708;DHT22;6418;50.824;4.718;2023-04-25T04:35:32;6.40;99.90
12708;DHT22;6418;50.824;4.718;2023-04-25T04:37:59;6.40;99.90
12708;DHT22;6418;50.824;4.718;2023-04-25T04:40:27;6.50;99.90
12708;DHT22;6418;50.824;4.718;2023-04-25T04:42:56;6.40;99.90
12708;DHT22;6418;50.824;4.718;2023-04-25T04:45:23;6.50;99.90
12708;DHT22;6418;50.824;4.718;2023-04-25T04:47:52;6.50;99.90
12708;DHT22;6418;50.824;4.718;2023-04-25T04:50:21;6.50;99.90
12708;DHT22;6418;50.824;4.718;2023-04-25T04:52:48;6.50;99.90
12708;DHT22;6418;50.824;4.718;2023-04-25T04:55:15;6.50;99.90
12708;DHT22;6418;50.824;4.718;2023-04-25T04:57:42;6.50;99.90
12708;DHT22;6418;50.824;4.718;2023-04-25T05:00:10;6.50;99.90
12708;DHT22;6418;50.824;4.718;2023-04-25T05:02:38;6.50;99.90
12708;DHT22;6418;50.824;4.718;2023-04-25T05:05:07;6.50;99.90
12708;DHT22;6418;50.824;4.718;2023-04-25T05:07:34;6.50;99.90
12708;DHT22;6418;50.824;4.718;2023-04-25T05:10:01;6.50;99.90
12708;DHT22;6418;50.824;4.718;2023-04-25T05:12:28;6.50;99.90
12708;DHT22;6418;50.824;4.718;2023-04-25T05:14:58;6.50;99.90
12708;DHT22;6418;50.824;4.718;2023-04-25T05:17:25;6.50;99.90
12708;DHT22;6418;50.824;4.718;2023-04-25T05:19:52;6.50;99.90
12708;DHT22;6418;50.824;4.718;2023-04-25T05:22:21;6.50;99.90
12708;DHT22;6418;50.824;4.718;2023-04-25T05:24:48;6.50;99.90
12708;DHT22;6418;50.824;4.718;2023-04-25T05:27:17;6.50;99.90
12708;DHT22;6418;50.824;4.718;2023-04-25T05:29:44;6.50;99.90
12708;DHT22;6418;50.824;4.718;2023-04-25T05:32:11;6.50;99.90
12708;DHT22;6418;50.824;4.718;2023-04-25T05:34:38;6.50;99.90
12708;DHT22;6418;50.824;4.718;2023-04-25T05:37:05;6.60;99.90
12708;DHT22;6418;50.824;4.718;2023-04-25T05:39:34;6.50;99.90
12708;DHT22;6418;50.824;4.718;2023-04-25T05:42:01;6.60;99.90
12708;DHT22;6418;50.824;4.718;2023-04-25T05:44:29;6.60;99.90
12708;DHT22;6418;50.824;4.718;2023-04-25T05:46:56;6.60;99.90
12708;DHT22;6418;50.824;4.718;2023-04-25T05:49:23;6.60;99.90
12708;DHT22;6418;50.824;4.718;2023-04-25T05:51:50;6.60;99.90
12708;DHT22;6418;50.824;4.718;2023-04-25T05:54:17;6.60;99.90
12708;DHT22;6418;50.824;4.718;2023-04-25T05:56:46;6.60;99.90
12708;DHT22;6418;50.824;4.718;2023-04-25T05:59:13;6.60;99.90
12708;DHT22;6418;50.824;4.718;2023-04-25T06:01:40;6.60;99.90
12708;DHT22;6418;50.824;4.718;2023-04-25T06:04:07;6.60;99.90
12708;DHT22;6418;50.824;4.718;2023-04-25T06:06:34;6.70;99.90
12708;DHT22;6418;50.824;4.718;2023-04-25T06:09:01;6.60;99.90
12708;DHT22;6418;50.824;4.718;2023-04-25T06:11:28;6.60;99.90
12708;DHT22;6418;50.824;4.718;2023-04-25T06:13:57;6.70;99.90
12708;DHT22;6418;50.824;4.718;2023-04-25T06:16:24;6.60;99.90
12708;DHT22;6418;50.824;4.718;2023-04-25T06:18:51;6.70;99.90
12708;DHT22;6418;50.824;4.718;2023-04-25T06:21:18;6.60;99.90
12708;DHT22;6418;50.824;4.718;2023-04-25T06:23:45;6.60;99.90
12708;DHT22;6418;50.824;4.718;2023-04-25T06:26:12;6.60;99.90
12708;DHT22;6418;50.824;4.718;2023-04-25T06:28:39;6.70;99.90
12708;DHT22;6418;50.824;4.718;2023-04-25T06:31:07;6.70;99.90
12708;DHT22;6418;50.824;4.718;2023-04-25T06:33:34;6.70;99.90
12708;DHT22;6418;50.824;4.718;2023-04-25T06:36:01;6.70;99.90
12708;DHT22;6418;50.824;4.718;2023-04-25T06:38:28;6.70;99.90
12708;DHT22;6418;50.824;4.718;2023-04-25T06:40:55;6.80;99.90
12708;DHT22;6418;50.824;4.718;2023-04-25T06:43:22;6.80;99.90
12708;DHT22;6418;50.824;4.718;2023-04-25T06:45:49;6.80;99.90
12708;DHT22;6418;50.824;4.718;2023-04-25T06:48:17;6.80;99.90
12708;DHT22;6418;50.824;4.718;2023-04-25T06:50:44;6.90;99.90
12708;DHT22;6418;50.824;4.718;2023-04-25T06:53:11;6.90;99.90
12708;DHT22;6418;50.824;4.718;2023-04-25T06:55:38;7.00;99.90
12708;DHT22;6418;50.824;4.718;2023-04-25T06:58:05;7.00;99.90
12708;DHT22;6418;50.824;4.718;2023-04-25T07:00:33;7.10;99.90
12708;DHT22;6418;50.824;4.718;2023-04-25T07:03:00;7.10;99.90
12708;DHT22;6418;50.824;4.718;2023-04-25T07:05:29;7.20;99.90
12708;DHT22;6418;50.824;4.718;2023-04-25T07:07:56;7.30;99.90
12708;DHT22;6418;50.824;4.718;2023-04-25T07:10:23;7.30;99.90
12708;DHT22;6418;50.824;4.718;2023-04-25T07:12:50;7.40;99.90
12708;DHT22;6418;50.824;4.718;2023-04-25T07:15:17;7.40;99.90
12708;DHT22;6418;50.824;4.718;2023-04-25T07:17:44;7.40;99.90
12708;DHT22;6418;50.824;4.718;2023-04-25T07:20:11;7.30;99.90
12708;DHT22;6418;50.824;4.718;2023-04-25T07:22:40;7.30;99.90
12708;DHT22;6418;50.824;4.718;2023-04-25T07:25:07;7.40;99.90
12708;DHT22;6418;50.824;4.718;2023-04-25T07:27:35;7.40;99.90
12708;DHT22;6418;50.824;4.718;2023-04-25T07:30:02;7.50;99.90
12708;DHT22;6418;50.824;4.718;2023-04-25T07:32:30;7.60;99.90
12708;DHT22;6418;50.824;4.718;2023-04-25T07:34:57;7.60;99.90
12708;DHT22;6418;50.824;4.718;2023-04-25T07:37:24;7.70;99.90
12708;DHT22;6418;50.824;4.718;2023-04-25T07:39:53;7.70;99.90
12708;DHT22;6418;50.824;4.718;2023-04-25T07:42:20;7.70;99.90
12708;DHT22;6418;50.824;4.718;2023-04-25T07:44:47;7.70;99.90
12708;DHT22;6418;50.824;4.718;2023-04-25T07:47:14;7.80;99.90
12708;DHT22;6418;50.824;4.718;2023-04-25T07:49:41;7.90;99.90
12708;DHT22;6418;50.824;4.718;2023-04-25T07:52:08;7.80;99.90
12708;DHT22;6418;50.824;4.718;2023-04-25T07:54:35;7.90;99.90
12708;DHT22;6418;50.824;4.718;2023-04-25T07:57:03;8.00;99.90
12708;DHT22;6418;50.824;4.718;2023-04-25T07:59:31;8.10;99.90
12708;DHT22;6418;50.824;4.718;2023-04-25T08:01:59;8.00;99.90
12708;DHT22;6418;50.824;4.718;2023-04-25T08:04:26;8.10;99.90
12708;DHT22;6418;50.824;4.718;2023-04-25T08:06:54;8.20;99.90
12708;DHT22;6418;50.824;4.718;2023-04-25T08:09:21;8.30;99.90
12708;DHT22;6418;50.824;4.718;2023-04-25T08:11:48;8.30;99.90
12708;DHT22;6418;50.824;4.718;2023-04-25T08:14:17;8.40;99.90
12708;DHT22;6418;50.824;4.718;2023-04-25T08:16:44;8.40;99.90
12708;DHT22;6418;50.824;4.718;2023-04-25T08:19:11;8.50;99.90
12708;DHT22;6418;50.824;4.718;2023-04-25T08:21:38;8.40;99.90
12708;DHT22;6418;50.824;4.718;2023-04-25T08:24:05;8.40;99.90
12708;DHT22;6418;50.824;4.718;2023-04-25T08:26:32;8.20;99.90
12708;DHT22;6418;50.824;4.718;2023-04-25T08:29:00;8.20;99.90
12708;DHT22;6418;50.824;4.718;2023-04-25T08:31:28;8.30;99.90
12708;DHT22;6418;50.824;4.718;2023-04-25T08:33:55;8.40;99.90
12708;DHT22;6418;50.824;4.718;2023-04-25T08:36:23;8.20;99.90
12708;DHT22;6418;50.824;4.718;2023-04-25T08:38:50;8.20;99.90
12708;DHT22;6418;50.824;4.718;2023-04-25T08:41:18;8.30;99.90
12708;DHT22;6418;50.824;4.718;2023-04-25T08:43:48;8.20;99.90
12708;DHT22;6418;50.824;4.718;2023-04-25T08:46:17;8.10;99.90
12708;DHT22;6418;50.824;4.718;2023-04-25T08:48:46;8.00;99.90
12708;DHT22;6418;50.824;4.718;2023-04-25T08:51:20;7.90;99.90
12708;DHT22;6418;50.824;4.718;2023-04-25T08:53:49;7.60;99.90
12708;DHT22;6418;50.824;4.718;2023-04-25T08:56:17;7.50;99.90
12708;DHT22;6418;50.824;4.718;2023-04-25T08:58:48;7.50;99.90
12708;DHT22;6418;50.824;4.718;2023-04-25T09:01:15;7.50;99.90
12708;DHT22;6418;50.824;4.718;2023-04-25T09:03:44;7.50;99.90
12708;DHT22;6418;50.824;4.718;2023-04-25T09:06:14;7.50;99.90
12708;DHT22;6418;50.824;4.718;2023-04-25T09:08:41;7.50;99.90
12708;DHT22;6418;50.824;4.718;2023-04-25T09:11:09;7.50;99.90
12708;DHT22;6418;50.824;4.718;2023-04-25T09:13:36;7.50;99.90
12708;DHT22;6418;50.824;4.718;2023-04-25T09:16:03;7.50;99.90
12708;DHT22;6418;50.824;4.718;2023-04-25T09:18:31;7.50;99.90
12708;DHT22;6418;50.824;4.718;2023-04-25T09:21:05;7.60;99.90
12708;DHT22;6418;50.824;4.718;2023-04-25T09:23:40;7.70;99.90
12708;DHT22;6418;50.824;4.718;2023-04-25T09:26:08;7.70;99.90
12708;DHT22;6418;50.824;4.718;2023-04-25T09:28:35;7.70;99.90
12708;DHT22;6418;50.824;4.718;2023-04-25T09:31:03;7.70;99.90
12708;DHT22;6418;50.824;4.718;2023-04-25T09:33:31;7.80;99.90
12708;DHT22;6418;50.824;4.718;2023-04-25T09:36:03;7.80;99.90
12708;DHT22;6418;50.824;4.718;2023-04-25T09:38:31;8.00;99.90
12708;DHT22;6418;50.824;4.718;2023-04-25T09:41:00;8.00;99.90
12708;DHT22;6418;50.824;4.718;2023-04-25T09:43:27;8.10;99.90
12708;DHT22;6418;50.824;4.718;2023-04-25T09:45:55;8.10;99.90
12708;DHT22;6418;50.824;4.718;2023-04-25T09:48:25;8.10;99.90
12708;DHT22;6418;50.824;4.718;2023-04-25T09:51:07;8.10;99.90
12708;DHT22;6418;50.824;4.718;2023-04-25T09:53:35;8.10;99.90
12708;DHT22;6418;50.824;4.718;2023-04-25T09:56:05;8.10;99.90
12708;DHT22;6418;50.824;4.718;2023-04-25T09:58:33;8.10;99.90
12708;DHT22;6418;50.824;4.718;2023-04-25T10:01:02;8.10;99.90
12708;DHT22;6418;50.824;4.718;2023-04-25T10:03:30;8.10;99.90
12708;DHT22;6418;50.824;4.718;2023-04-25T10:05:59;8.10;99.90
12708;DHT22;6418;50.824;4.718;2023-04-25T10:08:31;8.20;99.90
12708;DHT22;6418;50.824;4.718;2023-04-25T10:11:00;8.20;99.90
12708;DHT22;6418;50.824;4.718;2023-04-25T10:13:30;8.30;99.90
12708;DHT22;6418;50.824;4.718;2023-04-25T10:15:59;8.20;99.90
12708;DHT22;6418;50.824;4.718;2023-04-25T10:18:26;8.30;99.90
12708;DHT22;6418;50.824;4.718;2023-04-25T10:20:54;8.40;99.90
12708;DHT22;6418;50.824;4.718;2023-04-25T10:23:22;8.50;99.90
12708;DHT22;6418;50.824;4.718;2023-04-25T10:25:51;8.50;99.90
12708;DHT22;6418;50.824;4.718;2023-04-25T10:28:18;8.50;99.90
12708;DHT22;6418;50.824;4.718;2023-04-25T10:30:59;8.50;99.90
12708;DHT22;6418;50.824;4.718;2023-04-25T10:33:32;8.60;99.90
12708;DHT22;6418;50.824;4.718;2023-04-25T10:36:09;8.80;99.90
12708;DHT22;6418;50.824;4.718;2023-04-25T10:38:36;8.80;99.90
12708;DHT22;6418;50.824;4.718;2023-04-25T10:41:04;8.90;99.90
12708;DHT22;6418;50.824;4.718;2023-04-25T10:43:38;9.00;99.90
12708;DHT22;6418;50.824;4.718;2023-04-25T10:46:21;9.10;99.90
12708;DHT22;6418;50.824;4.718;2023-04-25T10:48:49;9.30;99.90
12708;DHT22;6418;50.824;4.718;2023-04-25T10:51:19;9.30;99.90
12708;DHT22;6418;50.824;4.718;2023-04-25T10:53:46;9.30;99.90
12708;DHT22;6418;50.824;4.718;2023-04-25T10:56:17;9.40;99.90
12708;DHT22;6418;50.824;4.718;2023-04-25T10:58:45;9.40;99.90
12708;DHT22;6418;50.824;4.718;2023-04-25T11:01:13;9.30;99.90
12708;DHT22;6418;50.824;4.718;2023-04-25T11:03:42;9.10;99.90
12708;DHT22;6418;50.824;4.718;2023-04-25T11:06:20;9.10;99.90
12708;DHT22;6418;50.824;4.718;2023-04-25T11:08:50;9.30;99.90
12708;DHT22;6418;50.824;4.718;2023-04-25T11:11:18;9.40;99.90
12708;DHT22;6418;50.824;4.718;2023-04-25T11:13:48;9.50;99.90
12708;DHT22;6418;50.824;4.718;2023-04-25T11:16:16;9.60;99.90
12708;DHT22;6418;50.824;4.718;2023-04-25T11:18:44;9.70;99.90
12708;DHT22;6418;50.824;4.718;2023-04-25T11:21:12;9.90;99.90
12708;DHT22;6418;50.824;4.718;2023-04-25T11:23:40;9.90;99.90
12708;DHT22;6418;50.824;4.718;2023-04-25T11:26:07;9.80;99.90
12708;DHT22;6418;50.824;4.718;2023-04-25T11:28:34;9.80;99.90
12708;DHT22;6418;50.824;4.718;2023-04-25T11:31:03;9.80;99.90
12708;DHT22;6418;50.824;4.718;2023-04-25T11:33:31;9.80;99.90
12708;DHT22;6418;50.824;4.718;2023-04-25T11:35:59;9.80;99.90
12708;DHT22;6418;50.824;4.718;2023-04-25T11:38:27;9.80;99.90
12708;DHT22;6418;50.824;4.718;2023-04-25T11:40:54;9.60;99.90
12708;DHT22;6418;50.824;4.718;2023-04-25T11:43:22;9.50;99.90
12708;DHT22;6418;50.824;4.718;2023-04-25T11:45:49;9.40;99.90
12708;DHT22;6418;50.824;4.718;2023-04-25T11:48:17;9.20;99.90
12708;DHT22;6418;50.824;4.718;2023-04-25T11:50:45;9.10;99.90
12708;DHT22;6418;50.824;4.718;2023-04-25T11:53:14;9.10;99.90
12708;DHT22;6418;50.824;4.718;2023-04-25T11:55:44;9.10;99.90
12708;DHT22;6418;50.824;4.718;2023-04-25T11:58:11;9.10;99.90
12708;DHT22;6418;50.824;4.718;2023-04-25T12:00:41;9.10;99.90
12708;DHT22;6418;50.824;4.718;2023-04-25T12:03:09;9.20;99.90
12708;DHT22;6418;50.824;4.718;2023-04-25T12:05:36;9.20;99.90
12708;DHT22;6418;50.824;4.718;2023-04-25T12:08:14;9.30;99.90
12708;DHT22;6418;50.824;4.718;2023-04-25T12:10:43;9.40;99.90
12708;DHT22;6418;50.824;4.718;2023-04-25T12:13:21;9.50;99.90
12708;DHT22;6418;50.824;4.718;2023-04-25T12:15:48;9.60;99.90
12708;DHT22;6418;50.824;4.718;2023-04-25T12:18:18;9.70;99.90
12708;DHT22;6418;50.824;4.718;2023-04-25T12:20:45;9.80;99.90
12708;DHT22;6418;50.824;4.718;2023-04-25T12:23:13;9.90;99.90
12708;DHT22;6418;50.824;4.718;2023-04-25T12:25:42;10.10;99.90
12708;DHT22;6418;50.824;4.718;2023-04-25T12:28:14;10.20;99.90
12708;DHT22;6418;50.824;4.718;2023-04-25T12:30:57;10.30;99.90
12708;DHT22;6418;50.824;4.718;2023-04-25T12:33:25;10.40;99.90
12708;DHT22;6418;50.824;4.718;2023-04-25T12:35:52;10.40;99.90
12708;DHT22;6418;50.824;4.718;2023-04-25T12:38:25;10.50;99.90
12708;DHT22;6418;50.824;4.718;2023-04-25T12:40:54;10.50;99.90
12708;DHT22;6418;50.824;4.718;2023-04-25T12:43:21;10.50;99.90
12708;DHT22;6418;50.824;4.718;2023-04-25T12:45:50;10.40;99.90
12708;DHT22;6418;50.824;4.718;2023-04-25T12:48:19;10.30;99.90
12708;DHT22;6418;50.824;4.718;2023-04-25T12:50:47;10.20;99.90
12708;DHT22;6418;50.824;4.718;2023-04-25T12:53:15;10.30;99.90
12708;DHT22;6418;50.824;4.718;2023-04-25T12:55:43;10.40;99.90
12708;DHT22;6418;50.824;4.718;2023-04-25T12:58:12;10.60;99.90
12708;DHT22;6418;50.824;4.718;2023-04-25T13:00:39;10.70;99.90
12708;DHT22;6418;50.824;4.718;2023-04-25T13:03:06;10.70;99.90
12708;DHT22;6418;50.824;4.718;2023-04-25T13:05:33;10.80;99.90
12708;DHT22;6418;50.824;4.718;2023-04-25T13:08:00;10.80;99.90
12708;DHT22;6418;50.824;4.718;2023-04-25T13:10:27;10.80;99.90
12708;DHT22;6418;50.824;4.718;2023-04-25T13:12:56;10.90;99.90
12708;DHT22;6418;50.824;4.718;2023-04-25T13:15:23;10.90;99.90
12708;DHT22;6418;50.824;4.718;2023-04-25T13:17:50;10.90;99.90
12708;DHT22;6418;50.824;4.718;2023-04-25T13:20:17;10.90;99.90
12708;DHT22;6418;50.824;4.718;2023-04-25T13:22:47;11.00;99.90
12708;DHT22;6418;50.824;4.718;2023-04-25T13:25:14;11.10;99.90
12708;DHT22;6418;50.824;4.718;2023-04-25T13:27:42;11.10;99.90
12708;DHT22;6418;50.824;4.718;2023-04-25T13:30:11;11.00;99.90
12708;DHT22;6418;50.824;4.718;2023-04-25T13:32:39;11.00;99.90
12708;DHT22;6418;50.824;4.718;2023-04-25T13:35:08;10.90;99.90
12708;DHT22;6418;50.824;4.718;2023-04-25T13:37:35;10.90;99.90
12708;DHT22;6418;50.824;4.718;2023-04-25T13:40:04;10.80;99.90
12708;DHT22;6418;50.824;4.718;2023-04-25T13:42:34;10.60;99.90
12708;DHT22;6418;50.824;4.718;2023-04-25T13:45:03;10.40;99.90
12708;DHT22;6418;50.824;4.718;2023-04-25T13:47:32;10.30;99.90
12708;DHT22;6418;50.824;4.718;2023-04-25T13:49:59;10.50;99.90
12708;DHT22;6418;50.824;4.718;2023-04-25T13:52:28;10.50;99.90
12708;DHT22;6418;50.824;4.718;2023-04-25T13:54:55;10.60;99.90
12708;DHT22;6418;50.824;4.718;2023-04-25T13:57:22;10.70;99.90
12708;DHT22;6418;50.824;4.718;2023-04-25T13:59:49;10.80;99.90
12708;DHT22;6418;50.824;4.718;2023-04-25T14:02:17;10.90;99.90
12708;DHT22;6418;50.824;4.718;2023-04-25T14:04:45;10.80;99.90
12708;DHT22;6418;50.824;4.718;2023-04-25T14:07:13;10.80;99.90
12708;DHT22;6418;50.824;4.718;2023-04-25T14:09:41;10.80;99.90
12708;DHT22;6418;50.824;4.718;2023-04-25T14:12:08;10.90;99.90
12708;DHT22;6418;50.824;4.718;2023-04-25T14:14:36;10.80;99.90
12708;DHT22;6418;50.824;4.718;2023-04-25T14:17:03;10.90;99.90
12708;DHT22;6418;50.824;4.718;2023-04-25T14:19:30;11.20;99.90
12708;DHT22;6418;50.824;4.718;2023-04-25T14:21:58;11.40;99.90
12708;DHT22;6418;50.824;4.718;2023-04-25T14:24:25;11.60;99.90
12708;DHT22;6418;50.824;4.718;2023-04-25T14:26:53;11.70;99.90
12708;DHT22;6418;50.824;4.718;2023-04-25T14:29:20;11.60;99.90
12708;DHT22;6418;50.824;4.718;2023-04-25T14:31:47;11.50;99.90
12708;DHT22;6418;50.824;4.718;2023-04-25T14:34:14;11.60;99.90
12708;DHT22;6418;50.824;4.718;2023-04-25T14:36:41;11.50;99.90
12708;DHT22;6418;50.824;4.718;2023-04-25T14:39:09;11.20;99.90
12708;DHT22;6418;50.824;4.718;2023-04-25T14:41:38;11.10;99.90
12708;DHT22;6418;50.824;4.718;2023-04-25T14:44:05;11.00;99.90
12708;DHT22;6418;50.824;4.718;2023-04-25T14:46:32;11.10;99.90
12708;DHT22;6418;50.824;4.718;2023-04-25T14:49:00;11.10;99.90
12708;DHT22;6418;50.824;4.718;2023-04-25T14:51:27;11.20;99.90
12708;DHT22;6418;50.824;4.718;2023-04-25T14:53:55;11.40;99.90
12708;DHT22;6418;50.824;4.718;2023-04-25T14:56:23;11.60;99.90
12708;DHT22;6418;50.824;4.718;2023-04-25T14:58:51;12.00;99.90
12708;DHT22;6418;50.824;4.718;2023-04-25T15:01:18;12.70;99.90
12708;DHT22;6418;50.824;4.718;2023-04-25T15:03:46;13.30;99.90
12708;DHT22;6418;50.824;4.718;2023-04-25T15:06:13;13.60;99.90
12708;DHT22;6418;50.824;4.718;2023-04-25T15:08:40;13.40;99.90
12708;DHT22;6418;50.824;4.718;2023-04-25T15:11:07;12.90;99.90
12708;DHT22;6418;50.824;4.718;2023-04-25T15:13:37;12.60;99.90
12708;DHT22;6418;50.824;4.718;2023-04-25T15:16:05;12.40;99.90
12708;DHT22;6418;50.824;4.718;2023-04-25T15:18:32;12.40;99.90
12708;DHT22;6418;50.824;4.718;2023-04-25T15:20:59;12.30;99.90
12708;DHT22;6418;50.824;4.718;2023-04-25T15:23:26;12.20;99.90
12708;DHT22;6418;50.824;4.718;2023-04-25T15:25:53;12.10;99.90
12708;DHT22;6418;50.824;4.718;2023-04-25T15:28:20;11.70;99.90
12708;DHT22;6418;50.824;4.718;2023-04-25T15:30:49;11.80;99.90
12708;DHT22;6418;50.824;4.718;2023-04-25T15:33:16;11.90;99.90
12708;DHT22;6418;50.824;4.718;2023-04-25T15:35:43;11.80;99.90
12708;DHT22;6418;50.824;4.718;2023-04-25T15:38:10;11.50;99.90
12708;DHT22;6418;50.824;4.718;2023-04-25T15:40:37;11.30;99.90
12708;DHT22;6418;50.824;4.718;2023-04-25T15:43:04;11.20;99.90
12708;DHT22;6418;50.824;4.718;2023-04-25T15:45:32;11.30;99.90
12708;DHT22;6418;50.824;4.718;2023-04-25T15:48:01;11.30;99.90
12708;DHT22;6418;50.824;4.718;2023-04-25T15:50:29;11.20;99.90
12708;DHT22;6418;50.824;4.718;2023-04-25T15:52:56;11.00;99.90
12708;DHT22;6418;50.824;4.718;2023-04-25T15:55:23;11.20;99.90
12708;DHT22;6418;50.824;4.718;2023-04-25T15:57:51;11.20;99.90
12708;DHT22;6418;50.824;4.718;2023-04-25T16:00:19;11.10;99.90
12708;DHT22;6418;50.824;4.718;2023-04-25T16:02:47;10.90;99.90